Time;durP1;ratioP1;P1;durP2;ratioP2;P2;SDS_P1;SDS_P2;PMS_P1;PMS_P2;Temp;Humidity;BMP_temperature;BMP_pressure;BME280_temperature;BME280_humidity;BME280_pressure;Samples;Min_cycle;Max_cycle;Signal;HPM_P1;HPM_P2
2023/01/05 00:01:57;;;;;;;15.05;3.47;;;;;;;9.52;97.16;101617.09;4922136;23;20067;-92
2023/01/05 00:04:47;;;;;;;19.55;3.40;;;;;;;9.52;96.88;101602.38;4919468;29;20036;-91
2023/01/05 00:07:13;;;;;;;12.98;2.83;;;;;;;9.53;96.81;101605.88;4919370;29;20477;-92
2023/01/05 00:09:56;;;;;;;23.93;4.17;;;;;;;9.54;96.28;101605.84;4919595;29;20118;-90
2023/01/05 00:23:48;;;;;;;18.23;3.22;;;;;;;9.53;95.71;101605.88;4923359;29;20505;-91
2023/01/05 00:26:20;;;;;;;16.88;3.60;;;;;;;9.48;95.85;101608.44;4919245;29;20126;-91
2023/01/05 00:28:57;;;;;;;14.10;2.95;;;;;;;9.48;96.22;101598.09;4918895;29;20474;-92
2023/01/05 00:31:37;;;;;;;12.05;3.17;;;;;;;9.38;96.41;101610.16;4918513;29;20028;-92
2023/01/05 00:34:08;;;;;;;15.10;3.10;;;;;;;9.37;96.06;101613.59;4919107;29;20036;-92
2023/01/05 00:36:33;;;;;;;12.57;3.05;;;;;;;9.37;96.21;101610.16;4919225;29;20563;-92
2023/01/05 00:39:08;;;;;;;18.63;3.53;;;;;;;9.31;96.53;101598.06;4918527;29;20040;-91
2023/01/05 00:41:49;;;;;;;14.40;3.08;;;;;;;9.30;96.64;101590.25;4917013;29;20473;-92
2023/01/05 00:44:27;;;;;;;14.50;3.10;;;;;;;9.24;96.28;101585.94;4918569;29;20132;-91
2023/01/05 00:46:53;;;;;;;20.10;3.33;;;;;;;9.22;96.52;101600.63;4917781;29;20032;-92
2023/01/05 00:49:24;;;;;;;14.55;2.90;;;;;;;9.21;96.32;101604.94;4918912;29;20091;-92
2023/01/05 00:54:34;;;;;;;15.70;2.90;;;;;;;9.14;96.62;101612.66;4918690;29;20074;-92
2023/01/05 00:57:00;;;;;;;13.17;3.40;;;;;;;9.08;96.80;101606.63;4918888;29;20024;-92
2023/01/05 00:59:32;;;;;;;14.45;2.45;;;;;;;9.06;97.12;101612.69;4918581;29;20024;-91
2023/01/05 01:02:23;;;;;;;16.63;3.67;;;;;;;9.04;96.85;101609.22;4918066;29;20063;-91
2023/01/05 01:04:48;;;;;;;13.00;2.72;;;;;;;9.02;97.19;101610.91;4918047;29;20036;-91
2023/01/05 01:07:36;;;;;;;15.33;3.00;;;;;;;8.99;97.04;101616.09;4918350;29;20496;-92
2023/01/05 01:10:02;;;;;;;15.10;3.38;;;;;;;8.94;97.23;101621.25;4918951;29;20025;-91
2023/01/05 01:12:45;;;;;;;14.90;3.20;;;;;;;8.92;97.44;101618.66;4917996;29;20028;-92
2023/01/05 01:15:13;;;;;;;12.50;2.95;;;;;;;8.86;97.21;101623.78;4918435;29;20028;-92
2023/01/05 01:17:50;;;;;;;13.82;2.70;;;;;;;8.81;97.82;101618.59;4918204;29;20056;-92
2023/01/05 01:20:21;;;;;;;10.25;2.88;;;;;;;8.79;97.84;101622.03;4918358;29;20032;-92
2023/01/05 01:22:46;;;;;;;14.18;3.03;;;;;;;8.75;97.81;101612.53;4927807;29;20035;-92
2023/01/05 01:25:12;;;;;;;13.17;2.87;;;;;;;8.73;97.83;101615.13;4934942;29;20029;-92
2023/01/05 01:27:46;;;;;;;15.10;2.60;;;;;;;8.72;98.07;101635.81;4935568;29;20035;-91
2023/01/05 01:30:12;;;;;;;12.75;2.67;;;;;;;8.69;98.00;101636.66;4934725;29;20064;-91
2023/01/05 01:32:37;;;;;;;13.53;2.50;;;;;;;8.64;97.88;101634.03;4918207;29;20032;-93
2023/01/05 01:35:28;;;;;;;13.30;2.70;;;;;;;8.64;98.28;101634.03;4918335;29;20020;-92
2023/01/05 01:38:06;;;;;;;14.13;2.92;;;;;;;8.60;98.45;101636.59;4916288;29;20028;-91
2023/01/05 01:41:00;;;;;;;14.82;2.95;;;;;;;8.57;98.55;101632.28;4932614;29;20035;-90
2023/01/05 01:43:52;;;;;;;16.15;3.00;;;;;;;8.58;99.07;101646.06;4934813;29;20024;-91
2023/01/05 01:46:35;;;;;;;14.55;2.83;;;;;;;8.61;98.62;101640.94;4932249;29;20040;-91
2023/01/05 01:49:21;;;;;;;17.83;3.58;;;;;;;8.59;98.81;101645.22;4927047;29;20055;-91
2023/01/05 01:51:47;;;;;;;18.83;4.00;;;;;;;8.55;98.79;101641.75;4926078;29;20027;-91
2023/01/05 01:57:26;;;;;;;12.15;2.50;;;;;;;8.56;99.16;101660.72;4936757;29;20043;-91
2023/01/05 02:00:13;;;;;;;15.48;3.28;;;;;;;8.57;99.06;101653.00;4936880;29;20053;-92
2023/01/05 02:02:39;;;;;;;17.00;3.45;;;;;;;8.58;99.34;101664.19;4935267;29;20059;-92
2023/01/05 02:05:33;;;;;;;11.52;2.63;;;;;;;8.60;99.34;101667.66;4936359;29;20042;-92
2023/01/05 02:08:13;;;;;;;17.85;3.60;;;;;;;8.60;99.64;101655.59;4936619;29;20020;-91
2023/01/05 02:11:35;;;;;;;14.95;2.72;;;;;;;8.65;99.73;101673.75;4936356;29;20028;-91
2023/01/05 02:14:33;;;;;;;19.35;3.42;;;;;;;8.69;99.33;101662.53;4896375;29;20463;-91
2023/01/05 02:17:29;;;;;;;16.63;3.22;;;;;;;8.74;99.42;101666.03;4936778;29;20469;-91
2023/01/05 02:20:29;;;;;;;17.67;3.50;;;;;;;8.76;99.66;101673.78;4936537;29;20098;-92
2023/01/05 02:23:16;;;;;;;14.00;2.85;;;;;;;8.78;99.69;101667.75;4936652;29;20090;-91
2023/01/05 02:26:11;;;;;;;11.65;2.65;;;;;;;8.80;99.78;101672.97;4936542;29;20075;-91
2023/01/05 02:28:56;;;;;;;15.00;3.17;;;;;;;8.84;99.57;101673.84;4936863;29;20465;-91
2023/01/05 02:32:17;;;;;;;18.67;3.15;;;;;;;8.82;99.57;101676.44;4936258;29;20040;-90
2023/01/05 02:35:14;;;;;;;14.48;2.85;;;;;;;8.88;99.44;101671.28;4911744;29;20122;-91
2023/01/05 02:38:02;;;;;;;15.30;3.20;;;;;;;8.89;99.40;101680.75;4936750;29;20051;-90
2023/01/05 02:40:57;;;;;;;18.85;3.40;;;;;;;8.89;99.47;101678.19;4924265;29;20126;-91
2023/01/05 02:43:37;;;;;;;16.70;3.10;;;;;;;8.93;99.34;101671.28;4917230;29;20040;-91
2023/01/05 02:46:03;;;;;;;9.63;2.38;;;;;;;8.93;99.37;101673.88;4916800;29;20473;-91
2023/01/05 02:48:28;;;;;;;18.37;3.63;;;;;;;8.94;99.06;101670.44;4917705;29;20080;-91
2023/01/05 02:51:26;;;;;;;14.77;3.23;;;;;;;9.03;99.06;101673.06;4917586;29;20490;-91
2023/01/05 02:54:18;;;;;;;15.15;3.05;;;;;;;9.02;99.14;101680.84;4917150;29;20032;-92
2023/01/05 02:57:03;;;;;;;13.77;2.83;;;;;;;9.04;98.66;101684.28;4917246;29;20050;-92
2023/01/05 02:59:53;;;;;;;12.38;2.75;;;;;;;9.03;98.90;101683.41;4926378;29;20028;-91
2023/01/05 03:02:30;;;;;;;16.70;3.05;;;;;;;9.03;98.57;101683.41;4917342;29;20175;-90
2023/01/05 03:05:25;;;;;;;14.50;3.13;;;;;;;9.10;98.59;101671.38;4917522;29;20026;-91
2023/01/05 03:08:05;;;;;;;15.50;3.08;;;;;;;9.10;98.25;101676.53;4916938;29;20107;-90
2023/01/05 03:13:58;;;;;;;13.15;2.80;;;;;;;9.14;98.74;101680.00;4919994;29;20060;-91
2023/01/05 03:17:00;;;;;;;12.65;2.85;;;;;;;9.14;97.88;101678.31;4920198;29;20024;-90
2023/01/05 03:19:49;;;;;;;13.85;2.90;;;;;;;9.16;98.40;101686.06;4910718;29;20038;-91
2023/01/05 03:35:32;;;;;;;16.10;3.13;;;;;;;9.23;97.61;101688.69;4920272;29;20055;-91
2023/01/05 03:38:33;;;;;;;;;;;;;;;;;;;;;
2023/01/05 03:41:23;;;;;;;17.90;3.28;;;;;;;9.23;97.31;101686.09;4917117;29;20048;-90
2023/01/05 03:43:55;;;;;;;18.35;3.08;;;;;;;9.24;97.04;101682.66;4920014;29;20099;-91
2023/01/05 03:46:21;;;;;;;16.23;3.05;;;;;;;9.29;97.20;101690.44;4919514;29;20028;-91
2023/01/05 03:49:08;;;;;;;11.75;2.63;;;;;;;9.29;97.63;101689.59;4919799;29;20100;-92
2023/01/05 03:51:33;;;;;;;18.90;3.20;;;;;;;9.26;97.13;101688.72;4919717;29;20031;-91
2023/01/05 03:54:14;;;;;;;16.33;3.57;;;;;;;9.25;97.52;101694.75;4941833;23;20018;-91
2023/01/05 03:56:39;;;;;;;15.50;3.05;;;;;;;9.28;97.36;101691.28;4919299;29;20441;-91
2023/01/05 03:59:14;;;;;;;14.80;3.10;;;;;;;9.28;97.03;101691.28;4919438;29;20024;-91
2023/01/05 04:01:39;;;;;;;17.27;3.00;;;;;;;9.30;97.34;101702.53;4919906;29;20035;-90
2023/01/05 04:04:25;;;;;;;15.40;2.80;;;;;;;9.31;97.47;101693.91;4919371;29;20477;-91
2023/01/05 04:06:59;;;;;;;11.98;2.35;;;;;;;9.29;97.50;101687.00;4919920;29;20031;-91
2023/01/05 04:09:38;;;;;;;14.77;3.03;;;;;;;9.32;97.82;101694.75;4918678;29;20031;-91
2023/01/05 04:12:04;;;;;;;17.48;3.55;;;;;;;9.31;97.14;101691.31;4919471;29;20028;-90
2023/01/05 04:17:25;;;;;;;14.80;3.28;;;;;;;9.34;97.11;101686.16;4941064;23;20086;-90
2023/01/05 04:19:51;;;;;;;19.98;3.28;;;;;;;9.38;96.44;101687.88;4902140;29;20044;-90
2023/01/05 04:22:34;;;;;;;19.33;3.63;;;;;;;9.39;96.78;101691.34;4917961;29;20426;-91
2023/01/05 04:24:59;;;;;;;14.95;3.00;;;;;;;9.42;97.07;101696.50;4919224;29;20031;-90
2023/01/05 04:27:36;;;;;;;17.97;3.07;;;;;;;9.45;97.05;101698.28;4919292;29;20028;-89
2023/01/05 04:30:03;;;;;;;17.52;3.38;;;;;;;9.42;97.03;101691.34;4983853;23;20047;-91
2023/01/05 04:32:34;;;;;;;15.70;3.05;;;;;;;9.42;97.17;101689.63;4918413;29;20127;-91
2023/01/05 04:34:59;;;;;;;18.55;3.83;;;;;;;9.43;97.11;101688.78;4919423;29;20056;-91
2023/01/05 04:37:36;;;;;;;16.20;3.00;;;;;;;9.39;97.14;101691.34;4919014;29;20048;-91
2023/01/05 04:40:20;;;;;;;17.30;3.42;;;;;;;9.41;97.04;101699.97;4918552;29;20043;-90
2023/01/05 04:43:07;;;;;;;18.13;3.45;;;;;;;9.44;97.16;101705.16;4918970;29;20056;-91
2023/01/05 04:45:33;;;;;;;15.23;2.78;;;;;;;9.42;96.94;101697.41;4919079;29;20024;-90
2023/01/05 04:47:58;;;;;;;19.23;3.97;;;;;;;9.42;96.94;101697.41;4919284;29;20024;-90
2023/01/05 04:53:50;;;;;;;15.98;3.63;;;;;;;9.43;97.31;101701.72;4918731;29;20050;-91
2023/01/05 04:56:36;;;;;;;16.42;3.20;;;;;;;9.45;97.15;101709.50;4918426;29;20111;-91
2023/01/05 04:59:02;;;;;;;13.25;2.70;;;;;;;9.44;97.14;101699.97;4918812;29;20024;-91
2023/01/05 05:01:42;;;;;;;10.00;2.20;;;;;;;9.46;97.38;101702.59;4918268;29;20477;-91
2023/01/05 05:04:07;;;;;;;11.77;2.67;;;;;;;9.41;97.42;101697.38;4918457;29;20036;-91
2023/01/05 05:06:55;;;;;;;18.63;3.33;;;;;;;9.41;97.18;101702.56;4917975;29;20508;-91
2023/01/05 05:09:45;;;;;;;18.25;3.35;;;;;;;9.43;97.04;101706.03;4918452;29;20095;-91
2023/01/05 05:12:28;;;;;;;18.55;3.70;;;;;;;9.44;97.38;101718.13;4918056;29;20038;-90
2023/01/05 05:14:54;;;;;;;19.25;3.47;;;;;;;9.42;97.20;101728.50;4918366;29;20032;-91
2023/01/05 05:17:19;;;;;;;16.70;3.30;;;;;;;9.43;97.33;101724.16;4918518;29;20024;-91
2023/01/05 05:20:13;;;;;;;13.60;2.70;;;;;;;9.45;97.39;101737.13;4918505;29;20020;-91
2023/01/05 05:22:57;;;;;;;14.98;2.90;;;;;;;9.45;96.94;101737.13;4916900;29;20099;-91
2023/01/05 05:25:23;;;;;;;17.55;3.22;;;;;;;9.45;97.06;101742.31;4918194;29;20115;-92
2023/01/05 05:27:48;;;;;;;17.27;3.17;;;;;;;9.46;97.04;101736.28;4917680;29;20099;-91
2023/01/05 05:30:36;;;;;;;18.37;3.13;;;;;;;9.50;96.56;101741.47;4917807;29;20031;-90
2023/01/05 05:33:02;;;;;;;13.15;2.58;;;;;;;9.51;96.62;101742.34;4918070;29;20028;-91
2023/01/05 05:35:40;;;;;;;16.27;3.13;;;;;;;9.54;96.69;101752.72;4917145;29;20034;-90
2023/01/05 05:38:06;;;;;;;12.65;2.63;;;;;;;9.49;96.94;101739.75;4918188;29;20075;-90
2023/01/05 05:40:55;;;;;;;17.80;3.20;;;;;;;9.52;96.64;101755.28;4917673;29;20119;-90
2023/01/05 05:43:20;;;;;;;20.73;3.70;;;;;;;9.49;96.68;101755.28;4917696;29;20024;-90
2023/01/05 05:46:08;;;;;;;19.70;3.40;;;;;;;9.53;96.66;101750.97;4917411;29;20087;-89
2023/01/05 05:48:33;;;;;;;9.65;2.40;;;;;;;9.50;96.97;101756.16;4917790;29;20496;-91
2023/01/05 05:50:58;;;;;;;13.20;3.10;;;;;;;9.49;97.08;101757.00;4918008;29;20028;-90
2023/01/05 05:53:33;;;;;;;18.00;3.30;;;;;;;9.47;96.91;101757.00;4917248;29;20035;-91
2023/01/05 05:55:58;;;;;;;16.15;3.33;;;;;;;9.45;96.89;101756.13;4917684;29;20052;-91
2023/01/05 05:58:42;;;;;;;16.23;3.30;;;;;;;9.47;96.85;101762.19;4917563;29;20517;-90
2023/01/05 06:01:08;;;;;;;19.33;4.03;;;;;;;9.47;96.90;101761.31;4917374;29;20099;-91
2023/01/05 06:03:51;;;;;;;17.57;3.43;;;;;;;9.47;97.00;101774.25;4918006;29;20098;-91
2023/01/05 06:06:34;;;;;;;16.77;3.60;;;;;;;9.46;97.10;101790.69;4917976;29;20088;-90
2023/01/05 06:08:59;;;;;;;19.33;3.45;;;;;;;9.46;97.48;101788.97;4917503;29;20028;-91
2023/01/05 06:11:43;;;;;;;16.47;3.60;;;;;;;9.45;97.47;101783.78;4917747;29;20020;-89
2023/01/05 06:14:08;;;;;;;19.27;3.55;;;;;;;9.41;97.52;101783.75;4917530;29;20197;-91
2023/01/05 06:16:34;;;;;;;19.20;3.40;;;;;;;9.42;97.63;101784.59;4918113;29;20110;-90
2023/01/05 06:19:14;;;;;;;15.70;2.90;;;;;;;9.42;97.90;101787.19;4922776;29;20048;-91
2023/01/05 06:21:39;;;;;;;16.80;3.75;;;;;;;9.39;97.78;101794.97;4918515;29;20024;-91
2023/01/05 06:24:22;;;;;;;20.83;4.20;;;;;;;9.40;97.66;101792.38;4917681;29;20027;-90
2023/01/05 06:26:59;;;;;;;11.90;2.65;;;;;;;9.38;98.27;101788.91;4917266;29;20469;-91
2023/01/05 06:29:24;;;;;;;14.82;3.22;;;;;;;9.36;98.04;101806.16;4917480;29;20083;-92
2023/01/05 06:32:08;;;;;;;13.47;2.73;;;;;;;9.37;98.39;101812.25;4915604;29;20498;-91
2023/01/05 06:34:34;;;;;;;14.43;3.10;;;;;;;9.35;98.40;101814.78;4917288;29;20044;-92
2023/01/05 06:36:59;;;;;;;15.40;3.00;;;;;;;9.33;98.37;101807.88;4917216;29;20032;-91
2023/01/05 06:39:39;;;;;;;16.63;3.30;;;;;;;9.33;98.40;101813.94;4923972;23;20056;-92
2023/01/05 06:42:05;;;;;;;18.60;3.53;;;;;;;9.32;98.34;101817.41;4917375;29;20024;-91
2023/01/05 06:44:33;;;;;;;17.67;3.70;;;;;;;9.31;98.29;101817.38;4916944;29;20032;-90
2023/01/05 06:46:58;;;;;;;13.80;3.05;;;;;;;9.32;98.71;101830.34;4920513;29;20031;-92
2023/01/05 06:49:45;;;;;;;17.60;3.63;;;;;;;9.34;99.05;101832.94;4919383;23;20052;-91
2023/01/05 06:52:10;;;;;;;20.60;4.05;;;;;;;9.32;98.84;101845.91;4901662;29;20045;-91
2023/01/05 06:54:38;;;;;;;14.63;3.10;;;;;;;9.32;98.66;101845.91;4902043;29;20057;-91
2023/01/05 06:57:15;;;;;;;18.58;3.42;;;;;;;9.31;98.53;101843.28;4901653;29;20039;-91
2023/01/05 06:59:41;;;;;;;16.42;3.30;;;;;;;9.33;98.71;101842.44;4901971;29;20035;-91
2023/01/05 07:02:27;;;;;;;16.67;3.50;;;;;;;9.32;98.56;101843.31;4902039;29;20025;-91
2023/01/05 07:04:52;;;;;;;;;;;;;;;9.32;98.59;101853.66;4902337;29;20024;-90
2023/01/05 07:07:33;;;;;;;18.40;3.40;;;;;;;9.32;98.53;101848.47;4901763;29;19923;-92
2023/01/05 07:10:08;;;;;;;17.45;3.47;;;;;;;9.32;98.99;101845.00;4902332;29;20029;-95
2023/01/05 07:12:34;;;;;;;19.25;3.75;;;;;;;9.30;98.69;101846.72;4901315;29;20040;-90
2023/01/05 07:14:59;;;;;;;17.17;3.50;;;;;;;9.32;98.65;101848.47;4901558;29;20032;-92
2023/01/05 07:17:25;;;;;;;16.63;3.27;;;;;;;9.29;98.74;101845.88;4901634;29;20069;-88
2023/01/05 07:20:07;;;;;;;14.63;3.50;;;;;;;9.28;98.60;101844.13;4909413;29;20032;-89
2023/01/05 07:22:32;;;;;;;16.83;3.72;;;;;;;9.29;98.62;101848.47;4882357;29;20134;-89
2023/01/05 07:24:58;;;;;;;22.53;4.40;;;;;;;9.30;98.53;101851.91;4882931;29;20044;-90
2023/01/05 07:27:24;;;;;;;18.87;3.30;;;;;;;9.29;98.72;101851.03;4882579;29;20048;-89
2023/01/05 07:30:03;;;;;;;18.47;3.60;;;;;;;9.31;98.50;101858.81;4882632;29;20025;-89
2023/01/05 07:32:29;;;;;;;19.88;3.60;;;;;;;9.29;98.53;101856.22;4882523;29;20035;-89
2023/01/05 07:34:54;;;;;;;13.77;2.90;;;;;;;9.31;98.73;101871.75;4891942;29;20115;-89
2023/01/05 07:37:34;;;;;;;14.07;3.07;;;;;;;9.29;98.58;101860.56;4900815;29;20027;-89
2023/01/05 07:39:59;;;;;;;14.20;3.53;;;;;;;9.27;98.82;101861.41;4901045;29;20515;-89
2023/01/05 07:42:25;;;;;;;10.77;2.67;;;;;;;9.26;98.78;101861.38;4901265;29;20107;-95
2023/01/05 07:45:03;;;;;;;20.10;3.60;;;;;;;9.23;99.26;101872.59;4902151;29;20036;-93
2023/01/05 07:47:43;;;;;;;15.68;3.30;;;;;;;9.22;98.83;101864.81;4902697;29;20076;-92
2023/01/05 07:50:09;;;;;;;14.63;2.92;;;;;;;9.22;98.89;101870.84;4904002;29;20029;-92
2023/01/05 07:52:34;;;;;;;18.50;4.00;;;;;;;9.24;99.25;101874.34;4901499;29;20032;-93
2023/01/05 07:54:59;;;;;;;12.50;2.90;;;;;;;9.24;99.07;101881.22;4901225;29;20055;-93
2023/01/05 07:57:47;;;;;;;17.97;3.30;;;;;;;9.23;99.16;101882.09;4900485;29;20039;-94
2023/01/05 08:02:57;;;;;;;20.58;3.47;;;;;;;9.25;99.18;101885.53;4927727;23;20059;-93
2023/01/05 08:05:22;;;;;;;20.10;3.33;;;;;;;9.26;98.81;101884.69;4938623;29;20028;-95
2023/01/05 08:07:47;;;;;;;18.67;3.43;;;;;;;9.26;98.94;101888.16;4938471;29;20031;-92
2023/01/05 08:10:28;;;;;;;21.17;3.83;;;;;;;9.26;99.08;101889.88;4938764;29;20035;-93
2023/01/05 08:15:36;;;;;;;12.52;2.70;;;;;;;9.26;99.46;101902.81;4920097;29;20508;-92
2023/01/05 08:18:24;;;;;;;17.37;3.30;;;;;;;9.29;99.13;101909.78;4992759;23;20043;-91
2023/01/05 08:20:58;;;;;;;13.15;2.92;;;;;;;9.29;99.06;101909.78;4938580;29;20110;-93
2023/01/05 08:23:33;;;;;;;14.00;3.00;;;;;;;9.26;99.16;101914.06;4938187;29;20034;-90
2023/01/05 08:26:11;;;;;;;15.02;3.05;;;;;;;9.31;99.02;101908.03;4937944;29;20079;-94
2023/01/05 08:28:55;;;;;;;16.48;3.10;;;;;;;9.29;98.82;101918.41;4938033;29;20035;-93
2023/01/05 08:34:25;;;;;;;20.85;3.70;;;;;;;9.30;98.89;101914.97;4998398;23;20043;-93
2023/01/05 08:36:53;;;;;;;21.80;4.07;;;;;;;9.31;98.18;101916.69;4924137;29;20112;-92
2023/01/05 08:39:30;;;;;;;20.92;3.72;;;;;;;9.34;98.70;101931.38;4919075;29;20032;-91
2023/01/05 08:42:11;;;;;;;17.80;3.10;;;;;;;9.33;98.66;101925.34;4918672;29;20521;-92
2023/01/05 08:44:36;;;;;;;20.85;4.15;;;;;;;9.33;98.51;101938.31;4923329;29;20465;-90
2023/01/05 08:47:23;;;;;;;14.53;3.13;;;;;;;9.38;98.54;101946.09;4929803;29;20039;-92
2023/01/05 08:49:48;;;;;;;16.08;4.35;;;;;;;9.39;98.43;101935.75;4932535;29;20080;-92
2023/01/05 08:52:32;;;;;;;18.67;3.43;;;;;;;9.39;98.73;101943.50;4931383;29;20472;-91
2023/01/05 08:55:04;;;;;;;15.80;3.33;;;;;;;9.40;98.45;101945.25;4933588;29;20032;-92
2023/01/05 08:57:48;;;;;;;18.67;3.90;;;;;;;9.44;97.96;101948.72;4919098;29;20444;-92
2023/01/05 09:00:26;;;;;;;17.65;3.42;;;;;;;9.41;98.36;101947.00;4952311;29;20482;-92
2023/01/05 09:03:36;;;;;;;16.92;3.53;;;;;;;9.42;98.21;101948.72;4950571;29;20110;-91
2023/01/05 09:06:10;;;;;;;19.65;3.80;;;;;;;9.45;98.05;101957.38;4943848;29;20101;-92
2023/01/05 09:08:40;;;;;;;15.73;3.13;;;;;;;9.45;98.28;101962.56;4942012;29;20036;-95
2023/01/05 09:11:17;;;;;;;12.65;2.80;;;;;;;9.50;98.34;101958.28;4946135;29;20015;-93
2023/01/05 09:13:50;;;;;;;13.95;2.97;;;;;;;9.49;98.22;101969.50;4937643;29;20024;-94
2023/01/05 09:16:32;;;;;;;12.73;2.70;;;;;;;9.49;98.17;101972.97;4924037;29;20032;-94
2023/01/05 09:19:04;;;;;;;15.52;3.00;;;;;;;9.50;98.07;101968.63;4941154;29;20020;-94
2023/01/05 09:21:35;;;;;;;14.43;3.55;;;;;;;9.52;98.24;101970.38;4939757;29;20040;-95
2023/01/05 09:24:15;;;;;;;14.35;3.03;;;;;;;9.54;98.29;101973.00;4939596;29;20098;-93
2023/01/05 09:26:41;;;;;;;14.02;2.75;;;;;;;9.58;98.33;101982.50;4953363;28;20011;-96
2023/01/05 09:29:08;;;;;;;12.80;2.65;;;;;;;9.58;98.08;101985.09;4979012;28;20018;-94
2023/01/05 09:31:44;;;;;;;17.48;3.35;;;;;;;9.59;97.97;101979.06;4962148;29;20078;-95
2023/01/05 09:34:30;;;;;;;16.75;3.50;;;;;;;9.61;97.88;101985.13;4956610;29;20038;-96
2023/01/05 09:43:56;;;;;;;12.40;3.00;;;;;;;9.68;97.71;101999.84;4868725;29;21236;-96
2023/01/05 09:46:38;;;;;;;16.08;2.88;;;;;;;9.67;97.18;101994.69;4929713;29;20069;-95
2023/01/05 09:49:12;;;;;;;20.23;3.70;;;;;;;9.67;97.63;102005.94;4919463;29;20028;-93
2023/01/05 09:55:14;;;;;;;15.88;2.90;;;;;;;9.73;97.71;102002.50;4918112;29;20126;-93
2023/01/05 09:58:06;;;;;;;19.40;3.65;;;;;;;9.77;97.12;102019.81;4918389;29;20428;-95
2023/01/05 10:01:14;;;;;;;15.82;3.05;;;;;;;9.77;96.80;102013.75;4924311;23;20040;-93
2023/01/05 10:04:05;;;;;;;14.98;3.33;;;;;;;9.76;97.46;102010.28;4917519;29;20046;-94
2023/01/05 10:06:51;;;;;;;15.27;3.30;;;;;;;9.85;97.41;102022.44;4917733;29;20031;-93
2023/01/05 10:09:42;;;;;;;17.67;3.42;;;;;;;9.88;97.01;102023.34;4917747;29;20057;-94
2023/01/05 10:15:18;;;;;;;12.55;3.00;;;;;;;9.95;97.12;102019.06;4925784;29;20050;-93
2023/01/05 10:18:07;;;;;;;18.50;3.20;;;;;;;9.94;96.51;102022.50;4926990;29;20103;-94
2023/01/05 10:27:43;;;;;;;16.38;3.30;;;;;;;9.90;96.92;102028.56;4907903;29;20075;-95
2023/01/05 10:30:47;;;;;;;17.92;3.75;;;;;;;9.89;96.82;102025.06;4903029;29;20033;-93
2023/01/05 10:33:49;;;;;;;17.63;3.05;;;;;;;9.90;97.22;102031.16;4920290;29;20097;-93
2023/01/05 10:36:50;;;;;;;13.85;3.22;;;;;;;9.92;97.33;102033.75;4920774;29;20047;-92
2023/01/05 10:40:04;;;;;;;16.52;3.20;;;;;;;9.94;96.90;102037.22;4931230;29;20396;-92
2023/01/05 10:43:22;;;;;;;14.82;3.00;;;;;;;9.92;97.04;102036.31;4932082;29;20028;-93
2023/01/05 10:46:12;;;;;;;15.15;2.90;;;;;;;9.91;97.27;102035.44;4925944;29;20047;-92
2023/01/05 10:48:57;;;;;;;14.10;3.05;;;;;;;9.89;97.18;102024.22;4909837;29;20413;-92
2023/01/05 10:51:41;;;;;;;11.50;2.77;;;;;;;9.92;97.18;102033.75;4906640;29;20032;-90
2023/01/05 10:54:49;;;;;;;14.32;2.80;;;;;;;9.92;97.29;102038.94;4921924;29;20296;-93
2023/01/05 10:57:52;;;;;;;13.27;3.03;;;;;;;9.90;97.24;102025.97;4901678;29;20037;-93
2023/01/05 11:00:54;;;;;;;12.18;2.83;;;;;;;9.95;97.25;102039.81;4907881;29;20853;-93
2023/01/05 11:03:59;;;;;;;13.68;2.50;;;;;;;9.92;97.19;102034.59;4918189;29;20036;-91
2023/01/05 11:06:40;;;;;;;12.30;2.85;;;;;;;9.92;97.11;102036.31;4882945;29;20036;-89
2023/01/05 11:12:15;;;;;;;14.93;3.30;;;;;;;9.95;97.12;102049.31;4957815;23;20064;-91
2023/01/05 11:14:55;;;;;;;13.88;3.08;;;;;;;9.96;97.13;102038.94;4900475;29;20045;-93
2023/01/05 11:17:24;;;;;;;17.27;3.40;;;;;;;10.05;96.55;102044.19;4901651;29;20029;-91
2023/01/05 11:20:05;;;;;;;18.17;3.92;;;;;;;10.15;96.82;102046.84;4901561;29;20063;-92
2023/01/05 11:22:55;;;;;;;17.02;3.30;;;;;;;10.21;95.78;102049.47;4901432;29;20024;-92
2023/01/05 11:25:38;;;;;;;20.52;3.85;;;;;;;10.30;95.77;102041.75;4901501;29;20043;-92
2023/01/05 11:28:34;;;;;;;18.95;4.25;;;;;;;10.39;95.71;102037.47;4914543;29;20503;-93
2023/01/05 11:31:03;;;;;;;16.02;3.70;;;;;;;10.38;94.91;102033.16;4921929;29;20036;-92
2023/01/05 11:33:32;;;;;;;15.35;3.70;;;;;;;10.36;94.76;102031.38;4920204;29;20024;-92
2023/01/05 11:36:19;;;;;;;16.23;3.33;;;;;;;10.45;95.58;102040.13;4920415;29;20024;-93
2023/01/05 11:39:12;;;;;;;15.40;3.55;;;;;;;10.46;95.19;102028.88;4922775;29;20482;-92
2023/01/05 11:41:37;;;;;;;13.07;3.17;;;;;;;10.51;95.08;102032.34;4920775;29;20056;-92
2023/01/05 11:44:22;;;;;;;13.00;3.17;;;;;;;10.55;94.72;102033.22;4919401;29;20062;-91
2023/01/05 11:47:05;;;;;;;13.57;3.00;;;;;;;10.52;94.78;102026.28;4919825;29;20078;-91
2023/01/05 11:49:31;;;;;;;9.50;2.80;;;;;;;10.49;95.11;102029.75;4920029;29;20028;-90
2023/01/05 11:51:56;;;;;;;14.73;2.70;;;;;;;10.54;94.80;102034.06;4919910;29;20031;-91
2023/01/05 11:54:43;;;;;;;13.10;3.20;;;;;;;10.53;94.49;102022.00;4919655;29;20304;-91
2023/01/05 11:57:37;;;;;;;17.38;3.40;;;;;;;10.54;93.66;102021.09;4919654;29;20036;-91
2023/01/05 12:00:34;;;;;;;;;;;;;;;;;;;;;
2023/01/05 12:03:45;;;;;;;20.20;4.15;;;;;;;10.53;93.72;102009.00;4880405;29;20161;-90
2023/01/05 12:07:02;;;;;;;17.13;4.13;;;;;;;10.58;93.03;102015.94;4910498;29;20035;-91
2023/01/05 12:09:52;;;;;;;15.10;3.42;;;;;;;10.64;94.17;102015.97;4904423;29;20040;-92
2023/01/05 12:12:47;;;;;;;15.35;3.63;;;;;;;10.69;93.41;102015.97;4882268;29;20083;-91
2023/01/05 12:15:27;;;;;;;16.13;3.60;;;;;;;10.71;92.92;102021.16;4881636;29;20040;-91
2023/01/05 12:18:33;;;;;;;16.30;4.05;;;;;;;10.75;92.62;102015.13;4882935;29;20033;-90
2023/01/05 12:21:26;;;;;;;16.45;3.90;;;;;;;10.88;93.34;102022.09;4881953;29;20498;-91
2023/01/05 12:24:31;;;;;;;14.02;3.30;;;;;;;11.01;93.18;102019.53;4882001;29;20093;-90
2023/01/05 12:27:22;;;;;;;14.02;3.20;;;;;;;11.16;91.90;102022.13;4881445;29;20088;-91
2023/01/05 12:30:00;;;;;;;20.00;4.05;;;;;;;11.20;91.45;102015.22;4951783;23;20063;-90
2023/01/05 12:36:14;;;;;;;12.52;3.05;;;;;;;11.19;91.66;102014.34;4938622;29;20091;-91
2023/01/05 12:39:42;;;;;;;15.57;3.45;;;;;;;11.17;90.93;102020.41;4939226;29;20071;-91
2023/01/05 12:42:26;;;;;;;13.25;3.10;;;;;;;11.09;91.22;102020.38;4950167;23;20052;-91
2023/01/05 12:45:03;;;;;;;10.40;2.85;;;;;;;11.00;91.56;102013.44;4919117;29;20107;-90
2023/01/05 12:47:56;;;;;;;6.78;2.47;;;;;;;10.97;92.17;102009.13;4919336;29;20095;-91
2023/01/05 12:50:59;;;;;;;9.15;2.60;;;;;;;10.90;92.32;102011.69;4918349;29;20043;-91
2023/01/05 12:54:05;;;;;;;14.93;3.35;;;;;;;10.82;91.60;102006.47;4918683;29;20433;-90
2023/01/05 12:57:23;;;;;;;12.38;2.92;;;;;;;10.75;91.76;102008.19;4918761;29;20043;-91
2023/01/05 13:00:17;;;;;;;7.63;2.70;;;;;;;10.72;92.57;102008.19;4918857;29;20119;-91
2023/01/05 13:02:59;;;;;;;9.88;2.67;;;;;;;10.70;92.53;102004.72;4918361;29;20124;-91
2023/01/05 13:06:05;;;;;;;9.75;2.95;;;;;;;10.68;91.95;101995.22;4918338;29;20107;-91
2023/01/05 13:08:37;;;;;;;11.75;2.75;;;;;;;10.63;92.13;101997.78;4918410;29;20136;-91
2023/01/05 13:11:23;;;;;;;9.73;2.75;;;;;;;10.63;92.24;101995.19;4918621;29;20059;-91
2023/01/05 13:14:10;;;;;;;11.43;2.67;;;;;;;10.60;92.49;102006.41;4918498;29;20043;-91
2023/01/05 13:17:00;;;;;;;14.52;3.28;;;;;;;10.58;91.96;102000.38;4918293;29;20036;-90
2023/01/05 13:20:08;;;;;;;9.95;3.00;;;;;;;10.60;92.69;102001.22;4917913;29;20028;-91
2023/01/05 13:23:24;;;;;;;7.47;2.45;;;;;;;10.69;92.91;101999.53;4918879;29;20039;-93
2023/01/05 13:26:21;;;;;;;11.75;2.78;;;;;;;10.73;92.47;101990.88;4901295;29;20075;-93
2023/01/05 13:28:48;;;;;;;13.55;3.35;;;;;;;10.72;92.00;101997.81;4917909;29;20333;-91
2023/01/05 13:31:19;;;;;;;8.90;2.70;;;;;;;10.76;92.53;101996.94;4918031;29;20032;-92
2023/01/05 13:34:21;;;;;;;11.88;2.80;;;;;;;10.77;92.59;101995.22;4917977;29;20039;-92
2023/01/05 13:37:34;;;;;;;9.25;2.60;;;;;;;10.77;92.79;102003.00;4917698;29;20036;-92
2023/01/05 13:40:18;;;;;;;11.52;3.30;;;;;;;10.74;92.38;102003.00;4917636;29;20029;-92
2023/01/05 13:43:05;;;;;;;12.43;2.97;;;;;;;10.69;92.14;101996.94;4917931;29;20044;-93